Decoded Metar for PAFR (FORT RICHARDSON in USA) (IATA:N/A) | Meteo·Mobile Aviation Weather
aviador You're here:

PAFR Decoded Metar

FORT RICHARDSON in USA
Report Time2019-05-19 22:58:00
UTC Time2019-05-19 23:23:48
Flight Rules vfr VFR
Wind320° at 07 kt
W.Decomp.*RWY 35: 4.6 kt HW 5.3 kt LCW
Visibility9999 m
Phenomena:N/A
Clouds:Overcast 080 Hf
Expected CloudBase > 4,800 ft AGL from Temp-Dew spread
Ceiling8,000 ft
Temp15°C (ISA +1)
Dew Point03°C (45% RH)
AAT11.0°C
QNH1005 hPa
Density Alt843 ft
Elevation377 ft
Report Wrong Elevation
Raw Report
PAFR 192258Z AUTO 32007KT 9SM OVC080 15/03 A2967=

Extra information for PAFR:More info

Metar Taf Metar & Taf Last 4 Metars F.Rules Stats Wind Profile Meteogram Temp Stats Airport Information Weather charts Add Link Nearby VenuesMetar ALERT Operation Metar Decoded Social comments

AIRNAV info for PAFR